createdAt,value
2017-08-30T00:00:05.429Z,928.08
2017-08-30T00:00:23.155Z,928.06
2017-08-30T00:00:42.459Z,928.11
2017-08-30T00:01:01.781Z,928.14
2017-08-30T00:01:20.023Z,928.14
2017-08-30T00:01:38.775Z,928.12
2017-08-30T00:01:58.064Z,928.13
2017-08-30T00:02:17.376Z,928.1
2017-08-30T00:02:36.641Z,928.13
2017-08-30T00:02:55.400Z,928.12
2017-08-30T00:03:14.668Z,928.19
2017-08-30T00:03:33.403Z,928.17
2017-08-30T00:03:52.697Z,928.17
2017-08-30T00:04:11.965Z,928.16
2017-08-30T00:04:30.752Z,928.17
2017-08-30T00:04:50.024Z,928.15
2017-08-30T00:05:08.765Z,928.11
2017-08-30T00:05:27.521Z,928.14
2017-08-30T00:05:46.792Z,928.14
2017-08-30T00:06:06.071Z,928.14
2017-08-30T00:06:24.306Z,928.14
2017-08-30T00:06:43.571Z,928.16
2017-08-30T00:07:02.329Z,928.11
2017-08-30T00:07:21.608Z,928.09
2017-08-30T00:07:40.894Z,928.1
2017-08-30T00:08:00.195Z,928.09
2017-08-30T00:08:19.142Z,928.11
2017-08-30T00:08:38.417Z,928.06
2017-08-30T00:08:56.654Z,928.08
2017-08-30T00:09:15.399Z,928.07
2017-08-30T00:09:34.677Z,928.07
2017-08-30T00:09:53.936Z,928.08
2017-08-30T00:10:12.700Z,928.07
2017-08-30T00:10:31.448Z,928.07
2017-08-30T00:10:50.715Z,928.06
2017-08-30T00:11:08.938Z,928.1
2017-08-30T00:11:28.194Z,928.06
2017-08-30T00:11:47.464Z,928.09
2017-08-30T00:12:06.768Z,928.09
2017-08-30T00:12:25.526Z,928.08
2017-08-30T00:12:44.817Z,928.06
2017-08-30T00:13:04.095Z,928.08
2017-08-30T00:13:22.838Z,928.12
2017-08-30T00:13:42.132Z,928.1
2017-08-30T00:14:00.886Z,928.07
2017-08-30T00:14:19.626Z,928.05
2017-08-30T00:14:38.386Z,928.1
2017-08-30T00:14:56.649Z,928.09
2017-08-30T00:15:14.865Z,928.09
2017-08-30T00:15:34.126Z,928.07
2017-08-30T00:15:52.860Z,928.08
2017-08-30T00:16:11.624Z,928.08
2017-08-30T00:16:30.400Z,928.12
2017-08-30T00:16:49.673Z,928.09
2017-08-30T00:17:08.430Z,928.11
2017-08-30T00:17:27.198Z,928.09
2017-08-30T00:17:46.469Z,928.12
2017-08-30T00:18:05.235Z,928.1
2017-08-30T00:18:22.968Z,928.16
2017-08-30T00:18:41.712Z,928.12
2017-08-30T00:19:00.503Z,928.15
2017-08-30T00:19:19.260Z,928.11
2017-08-30T00:19:37.504Z,928.12
2017-08-30T00:19:56.772Z,928.15
2017-08-30T00:20:14.497Z,928.12
2017-08-30T00:20:33.256Z,928.13
2017-08-30T00:20:52.557Z,928.1
2017-08-30T00:21:11.864Z,928.15
2017-08-30T00:21:30.094Z,928.15
2017-08-30T00:21:49.385Z,928.15
2017-08-30T00:22:08.152Z,928.16
2017-08-30T00:22:27.436Z,928.18
2017-08-30T00:22:46.201Z,928.15
2017-08-30T00:23:05.594Z,928.15
2017-08-30T00:23:24.334Z,928.2
2017-08-30T00:23:43.624Z,928.15
2017-08-30T00:24:01.337Z,928.21
2017-08-30T00:24:20.622Z,928.17
2017-08-30T00:24:39.905Z,928.17
2017-08-30T00:24:58.653Z,928.18
2017-08-30T00:25:17.394Z,928.22
2017-08-30T00:25:36.679Z,928.19
2017-08-30T00:25:55.416Z,928.2
2017-08-30T00:26:14.674Z,928.21
2017-08-30T00:26:33.984Z,928.19
2017-08-30T00:26:53.263Z,928.25
2017-08-30T00:27:12.540Z,928.21
2017-08-30T00:27:30.774Z,928.24
2017-08-30T00:27:49.523Z,928.23
2017-08-30T00:28:08.280Z,928.23
2017-08-30T00:28:27.554Z,928.26
2017-08-30T00:28:46.825Z,928.22
2017-08-30T00:29:06.100Z,928.26
2017-08-30T00:29:25.358Z,928.26
2017-08-30T00:29:44.125Z,928.3
2017-08-30T00:30:02.874Z,928.27
2017-08-30T00:30:20.590Z,928.28
2017-08-30T00:30:39.873Z,928.27
2017-08-30T00:30:58.606Z,928.27
2017-08-30T00:31:17.349Z,928.29
2017-08-30T00:31:36.620Z,928.25
2017-08-30T00:31:55.376Z,928.28
2017-08-30T00:32:14.446Z,928.29
2017-08-30T00:32:34.233Z,928.34
2017-08-30T00:32:53.863Z,928.3
2017-08-30T00:33:12.846Z,928.32
2017-08-30T00:33:31.745Z,928.34
2017-08-30T00:33:50.687Z,928.32
2017-08-30T00:34:08.957Z,928.36
2017-08-30T00:34:26.811Z,928.34
2017-08-30T00:34:45.851Z,928.39
2017-08-30T00:35:38.491Z,928.34
2017-08-30T00:35:57.349Z,928.4
2017-08-30T00:36:16.102Z,928.38
2017-08-30T00:36:35.370Z,928.37
2017-08-30T00:36:54.115Z,928.34
2017-08-30T00:37:12.339Z,928.39
2017-08-30T00:37:31.641Z,928.37
2017-08-30T00:37:50.928Z,928.39
2017-08-30T00:38:09.672Z,928.36
2017-08-30T00:38:27.914Z,928.36
2017-08-30T00:38:47.337Z,928.34
2017-08-30T00:39:06.606Z,928.36
2017-08-30T00:39:25.885Z,928.37
2017-08-30T00:39:45.154Z,928.38
2017-08-30T00:40:03.904Z,928.4
2017-08-30T00:40:23.156Z,928.37
2017-08-30T00:40:42.420Z,928.38
2017-08-30T00:41:01.682Z,928.38
2017-08-30T00:41:19.404Z,928.42
2017-08-30T00:41:37.108Z,928.4
2017-08-30T00:41:55.334Z,928.39
2017-08-30T00:42:13.574Z,928.36
2017-08-30T00:42:32.365Z,928.39
2017-08-30T00:42:51.640Z,928.35
2017-08-30T00:43:09.899Z,928.39
2017-08-30T00:43:28.682Z,928.4
2017-08-30T00:43:48.116Z,928.39
2017-08-30T00:44:07.390Z,928.37
2017-08-30T00:44:24.576Z,928.39
2017-08-30T00:44:43.875Z,928.37
2017-08-30T00:45:02.636Z,928.36
2017-08-30T00:45:21.391Z,928.42
2017-08-30T00:45:40.162Z,928.35
2017-08-30T00:45:59.431Z,928.4
2017-08-30T00:46:18.702Z,928.4
2017-08-30T00:46:37.443Z,928.4
2017-08-30T00:46:56.743Z,928.4
2017-08-30T00:47:15.501Z,928.37
2017-08-30T00:47:33.740Z,928.37
2017-08-30T00:47:52.492Z,928.39
2017-08-30T00:48:11.241Z,928.35
2017-08-30T00:48:29.984Z,928.36
2017-08-30T00:48:49.239Z,928.39
2017-08-30T00:49:07.987Z,928.38
2017-08-30T00:49:27.254Z,928.39
2017-08-30T00:49:45.996Z,928.43
2017-08-30T00:50:05.275Z,928.39
2017-08-30T00:50:23.493Z,928.39
2017-08-30T00:50:42.756Z,928.4
2017-08-30T00:51:01.524Z,928.41
2017-08-30T00:51:20.807Z,928.42
2017-08-30T00:51:40.057Z,928.4
2017-08-30T00:51:58.817Z,928.41
2017-08-30T00:52:17.551Z,928.37
2017-08-30T00:52:36.809Z,928.36
2017-08-30T00:52:56.090Z,928.4
2017-08-30T00:53:15.357Z,928.41
2017-08-30T00:53:34.618Z,928.39
2017-08-30T00:53:53.372Z,928.38
2017-08-30T00:54:11.618Z,928.39
2017-08-30T00:54:30.352Z,928.38
2017-08-30T00:54:48.593Z,928.38
2017-08-30T00:55:07.362Z,928.41
2017-08-30T00:55:25.596Z,928.38
2017-08-30T00:55:44.342Z,928.39
2017-08-30T00:56:03.073Z,928.37
2017-08-30T00:56:22.372Z,928.43
2017-08-30T00:56:41.671Z,928.41
2017-08-30T00:57:00.974Z,928.36
2017-08-30T00:57:19.727Z,928.42
2017-08-30T00:57:38.998Z,928.4
2017-08-30T00:57:57.746Z,928.4
2017-08-30T00:58:15.991Z,928.41
2017-08-30T00:58:35.283Z,928.43
2017-08-30T00:58:53.537Z,928.37
2017-08-30T00:59:12.790Z,928.41
2017-08-30T00:59:31.588Z,928.42
2017-08-30T00:59:50.840Z,928.43
2017-08-30T01:00:10.131Z,928.42
2017-08-30T01:00:29.410Z,928.42
2017-08-30T01:00:47.631Z,928.43
2017-08-30T01:01:06.396Z,928.42
2017-08-30T01:01:25.672Z,928.41
2017-08-30T01:01:44.969Z,928.42
2017-08-30T01:02:03.715Z,928.37
2017-08-30T01:02:22.457Z,928.43
2017-08-30T01:02:41.720Z,928.38
2017-08-30T01:02:59.935Z,928.38
2017-08-30T01:03:18.666Z,928.38
2017-08-30T01:03:37.924Z,928.36
2017-08-30T01:03:57.228Z,928.36
2017-08-30T01:04:15.465Z,928.42
2017-08-30T01:04:34.240Z,928.41
2017-08-30T01:04:53.527Z,928.42
2017-08-30T01:05:12.826Z,928.41
2017-08-30T01:05:32.106Z,928.43
2017-08-30T01:05:51.375Z,928.44
2017-08-30T01:06:10.123Z,928.42
2017-08-30T01:06:28.864Z,928.39
2017-08-30T01:06:48.139Z,928.43
2017-08-30T01:07:07.445Z,928.39
2017-08-30T01:07:26.719Z,928.44
2017-08-30T01:07:46.028Z,928.47
2017-08-30T01:08:04.805Z,928.4
2017-08-30T01:08:23.564Z,928.38
2017-08-30T01:08:42.317Z,928.41
2017-08-30T01:09:01.605Z,928.43
2017-08-30T01:09:20.370Z,928.48
2017-08-30T01:09:39.636Z,928.44
2017-08-30T01:09:58.386Z,928.41
2017-08-30T01:10:17.650Z,928.43
2017-08-30T01:10:36.432Z,928.42
2017-08-30T01:10:55.200Z,928.4
2017-08-30T01:11:12.406Z,928.44
2017-08-30T01:11:31.677Z,928.42
2017-08-30T01:11:49.913Z,928.41
2017-08-30T01:12:08.648Z,928.45
2017-08-30T01:12:27.902Z,928.42
2017-08-30T01:12:47.199Z,928.41
2017-08-30T01:13:05.941Z,928.44
2017-08-30T01:13:24.695Z,928.42
2017-08-30T01:13:43.035Z,928.43
2017-08-30T01:14:01.799Z,928.41
2017-08-30T01:14:20.052Z,928.41
2017-08-30T01:14:38.817Z,928.44
2017-08-30T01:14:58.069Z,928.41
2017-08-30T01:15:16.379Z,928.4
2017-08-30T01:15:35.129Z,928.4
2017-08-30T01:15:54.396Z,928.38
2017-08-30T01:16:12.134Z,928.38
2017-08-30T01:16:31.404Z,928.38
2017-08-30T01:16:50.682Z,928.41
2017-08-30T01:17:09.443Z,928.39
2017-08-30T01:17:29.657Z,928.4
2017-08-30T01:17:48.412Z,928.4
2017-08-30T01:18:07.165Z,928.41
2017-08-30T01:18:26.454Z,928.42
2017-08-30T01:18:45.747Z,928.41
2017-08-30T01:19:05.032Z,928.4
2017-08-30T01:19:24.333Z,928.38
2017-08-30T01:19:43.071Z,928.39
2017-08-30T01:20:00.814Z,928.41
2017-08-30T01:20:20.106Z,928.4
2017-08-30T01:20:39.372Z,928.37
2017-08-30T01:20:58.645Z,928.34
2017-08-30T01:21:17.908Z,928.38
2017-08-30T01:21:36.652Z,928.35
2017-08-30T01:21:55.392Z,928.38
2017-08-30T01:22:14.132Z,928.38
2017-08-30T01:22:33.394Z,928.37
2017-08-30T01:22:52.188Z,928.37
2017-08-30T01:23:11.455Z,928.38
2017-08-30T01:23:30.223Z,928.38
2017-08-30T01:23:48.979Z,928.38
2017-08-30T01:24:07.199Z,928.38
2017-08-30T01:24:26.475Z,928.37
2017-08-30T01:24:45.752Z,928.4
2017-08-30T01:25:05.024Z,928.39
2017-08-30T01:25:23.305Z,928.44
2017-08-30T01:25:42.558Z,928.4
2017-08-30T01:26:01.831Z,928.38
2017-08-30T01:26:21.094Z,928.4
2017-08-30T01:26:40.368Z,928.45
2017-08-30T01:26:59.627Z,928.44
2017-08-30T01:27:17.888Z,928.4
2017-08-30T01:27:36.640Z,928.43
2017-08-30T01:27:55.915Z,928.46
2017-08-30T01:28:14.680Z,928.48
2017-08-30T01:28:33.450Z,928.48
2017-08-30T01:28:52.724Z,928.46
2017-08-30T01:29:11.491Z,928.45
2017-08-30T01:29:30.290Z,928.47
2017-08-30T01:29:49.055Z,928.44
2017-08-30T01:30:07.814Z,928.45
2017-08-30T01:30:26.553Z,928.51
2017-08-30T01:30:45.823Z,928.45
2017-08-30T01:31:04.545Z,928.46
2017-08-30T01:31:23.813Z,928.45
2017-08-30T01:31:42.559Z,928.44
2017-08-30T01:32:00.779Z,928.42
2017-08-30T01:32:19.028Z,928.42
2017-08-30T01:32:37.792Z,928.43
2017-08-30T01:32:56.568Z,928.43
2017-08-30T01:33:15.833Z,928.45
2017-08-30T01:33:35.091Z,928.45
2017-08-30T01:33:53.835Z,928.46
2017-08-30T01:34:12.590Z,928.38
2017-08-30T01:34:31.850Z,928.4
2017-08-30T01:34:51.109Z,928.44
2017-08-30T01:35:09.319Z,928.44
2017-08-30T01:35:27.551Z,928.38
2017-08-30T01:35:46.848Z,928.43
2017-08-30T01:36:05.599Z,928.43
2017-08-30T01:36:23.333Z,928.43
2017-08-30T01:36:42.083Z,928.41
2017-08-30T01:37:01.392Z,928.41
2017-08-30T01:37:20.672Z,928.38
2017-08-30T01:37:39.941Z,928.36
2017-08-30T01:37:58.703Z,928.41
2017-08-30T01:38:17.453Z,928.39
2017-08-30T01:38:35.684Z,928.37
2017-08-30T01:38:54.956Z,928.38
2017-08-30T01:39:13.696Z,928.38
2017-08-30T01:39:31.428Z,928.38
2017-08-30T01:39:50.182Z,928.37
2017-08-30T01:40:09.474Z,928.35
2017-08-30T01:40:28.773Z,928.32
2017-08-30T01:40:48.023Z,928.33
2017-08-30T01:41:07.323Z,928.32
2017-08-30T01:41:25.026Z,928.34
2017-08-30T01:41:44.286Z,928.33
2017-08-30T01:42:03.076Z,928.32
2017-08-30T01:42:21.308Z,928.33
2017-08-30T01:42:40.553Z,928.33
2017-08-30T01:42:59.863Z,928.34
2017-08-30T01:43:18.103Z,928.33
2017-08-30T01:43:36.869Z,928.36
2017-08-30T01:43:55.611Z,928.38
2017-08-30T01:44:14.354Z,928.36
2017-08-30T01:44:33.654Z,928.35
2017-08-30T01:44:52.928Z,928.33
2017-08-30T01:45:11.687Z,928.34
2017-08-30T01:45:30.435Z,928.34
2017-08-30T01:45:49.714Z,928.36
2017-08-30T01:46:08.991Z,928.38
2017-08-30T01:46:27.746Z,928.38
2017-08-30T01:46:47.044Z,928.37
2017-08-30T01:47:05.801Z,928.38
2017-08-30T01:47:24.029Z,928.38
2017-08-30T01:47:43.307Z,928.37
2017-08-30T01:48:02.596Z,928.38
2017-08-30T01:48:20.307Z,928.35
2017-08-30T01:48:39.049Z,928.39
2017-08-30T01:48:58.317Z,928.35
2017-08-30T01:49:17.617Z,928.39
2017-08-30T01:49:36.928Z,928.37
2017-08-30T01:49:56.212Z,928.38
2017-08-30T01:50:14.976Z,928.37
2017-08-30T01:50:34.262Z,928.4
2017-08-30T01:50:51.988Z,928.4
2017-08-30T01:51:11.272Z,928.37
2017-08-30T01:51:30.674Z,928.35
2017-08-30T01:51:49.433Z,928.37
2017-08-30T01:52:08.724Z,928.39
2017-08-30T01:52:27.462Z,928.35
2017-08-30T01:52:45.697Z,928.36
2017-08-30T01:53:04.948Z,928.4
2017-08-30T01:53:23.694Z,928.34
2017-08-30T01:53:42.451Z,928.37
2017-08-30T01:54:00.706Z,928.38
2017-08-30T01:54:19.446Z,928.36
2017-08-30T01:54:37.696Z,928.36
2017-08-30T01:54:56.453Z,928.38
2017-08-30T01:55:15.738Z,928.37
2017-08-30T01:55:35.000Z,928.35
2017-08-30T01:55:54.283Z,928.32
2017-08-30T01:56:13.557Z,928.32
2017-08-30T01:56:32.840Z,928.33
2017-08-30T01:56:50.573Z,928.34
2017-08-30T01:57:09.334Z,928.33
2017-08-30T01:57:28.628Z,928.36
2017-08-30T01:57:47.906Z,928.34
2017-08-30T01:58:07.159Z,928.37
2017-08-30T01:58:26.436Z,928.39
2017-08-30T01:58:45.693Z,928.4
2017-08-30T01:59:04.434Z,928.36
2017-08-30T01:59:23.175Z,928.38
2017-08-30T01:59:42.471Z,928.38
2017-08-30T02:00:01.756Z,928.39
2017-08-30T02:00:21.024Z,928.33
2017-08-30T02:00:40.281Z,928.35
2017-08-30T02:00:59.023Z,928.36
2017-08-30T02:01:18.306Z,928.35
2017-08-30T02:01:36.533Z,928.36
2017-08-30T02:01:55.287Z,928.37
2017-08-30T02:02:14.559Z,928.34
2017-08-30T02:02:33.834Z,928.34
2017-08-30T02:02:53.090Z,928.32
2017-08-30T02:03:11.866Z,928.33
2017-08-30T02:03:30.633Z,928.34
2017-08-30T02:03:49.900Z,928.35
2017-08-30T02:04:08.660Z,928.33
2017-08-30T02:04:27.374Z,928.35
2017-08-30T02:04:45.624Z,928.3
2017-08-30T02:05:04.920Z,928.31
2017-08-30T02:05:23.168Z,928.31
2017-08-30T02:05:42.427Z,928.32
2017-08-30T02:06:01.205Z,928.33
2017-08-30T02:06:19.971Z,928.29
2017-08-30T02:06:38.753Z,928.3
2017-08-30T02:06:57.526Z,928.28
2017-08-30T02:07:15.760Z,928.29
2017-08-30T02:07:34.518Z,928.3
2017-08-30T02:07:53.777Z,928.3
2017-08-30T02:08:13.059Z,928.29
2017-08-30T02:08:32.347Z,928.29
2017-08-30T02:08:51.123Z,928.32
2017-08-30T02:09:09.884Z,928.28
2017-08-30T02:09:28.619Z,928.28
2017-08-30T02:09:47.873Z,928.31
2017-08-30T02:10:07.133Z,928.3
2017-08-30T02:10:26.399Z,928.29
2017-08-30T02:10:44.635Z,928.3
2017-08-30T02:11:03.367Z,928.29
2017-08-30T02:11:22.123Z,928.31
2017-08-30T02:11:41.401Z,928.24
2017-08-30T02:12:00.715Z,928.28
2017-08-30T02:12:18.976Z,928.26
2017-08-30T02:12:37.721Z,928.28
2017-08-30T02:12:57.003Z,928.22
2017-08-30T02:13:16.271Z,928.25
2017-08-30T02:13:35.006Z,928.22
2017-08-30T02:13:54.255Z,928.26
2017-08-30T02:14:13.022Z,928.26
2017-08-30T02:14:31.237Z,928.31
2017-08-30T02:14:49.985Z,928.31
2017-08-30T02:15:08.732Z,928.25
2017-08-30T02:15:26.972Z,928.26
2017-08-30T02:15:45.723Z,928.25
2017-08-30T02:16:05.001Z,928.26
2017-08-30T02:16:23.266Z,928.27
2017-08-30T02:16:42.555Z,928.27
2017-08-30T02:17:01.815Z,928.28
2017-08-30T02:17:20.563Z,928.28
2017-08-30T02:17:39.317Z,928.28
2017-08-30T02:17:58.084Z,928.31
2017-08-30T02:18:16.305Z,928.27
2017-08-30T02:18:35.202Z,928.33
2017-08-30T02:18:54.509Z,928.31
2017-08-30T02:19:12.760Z,928.27
2017-08-30T02:19:30.974Z,928.26
2017-08-30T02:19:49.771Z,928.27
2017-08-30T02:20:08.510Z,928.3
2017-08-30T02:20:27.260Z,928.26
2017-08-30T02:20:46.040Z,928.3
2017-08-30T02:21:05.311Z,928.28
2017-08-30T02:21:24.577Z,928.29
2017-08-30T02:21:43.848Z,928.31
2017-08-30T02:22:02.607Z,928.29
2017-08-30T02:22:20.846Z,928.33
2017-08-30T02:22:40.117Z,928.29
2017-08-30T02:22:59.383Z,928.33
2017-08-30T02:23:17.603Z,928.34
2017-08-30T02:23:36.890Z,928.35
2017-08-30T02:23:56.180Z,928.29
2017-08-30T02:24:15.461Z,928.31
2017-08-30T02:24:34.763Z,928.33
2017-08-30T02:24:53.520Z,928.34
2017-08-30T02:25:12.800Z,928.34
2017-08-30T02:25:30.509Z,928.33
2017-08-30T02:25:49.790Z,928.34
2017-08-30T02:26:09.053Z,928.31
2017-08-30T02:26:27.789Z,928.31
2017-08-30T02:26:46.527Z,928.29
2017-08-30T02:27:05.278Z,928.31
2017-08-30T02:27:24.583Z,928.29
2017-08-30T02:27:43.857Z,928.32
2017-08-30T02:28:02.105Z,928.32
2017-08-30T02:28:19.822Z,928.31
2017-08-30T02:28:38.563Z,928.37
2017-08-30T02:28:57.336Z,928.29
2017-08-30T02:29:16.103Z,928.32
2017-08-30T02:29:35.400Z,928.32
2017-08-30T02:29:54.706Z,928.3
2017-08-30T02:30:13.952Z,928.28
2017-08-30T02:30:32.695Z,928.29
2017-08-30T02:30:51.495Z,928.29
2017-08-30T02:31:10.775Z,928.32
2017-08-30T02:31:30.043Z,928.3
2017-08-30T02:31:49.334Z,928.31
2017-08-30T02:32:08.652Z,928.26
2017-08-30T02:32:27.427Z,928.26
2017-08-30T02:32:46.169Z,928.28
2017-08-30T02:33:03.946Z,928.31
2017-08-30T02:33:22.177Z,928.26
2017-08-30T02:33:40.925Z,928.28
2017-08-30T02:34:00.230Z,928.29
2017-08-30T02:34:18.973Z,928.26
2017-08-30T02:34:37.722Z,928.29
2017-08-30T02:34:57.013Z,928.24
2017-08-30T02:35:16.315Z,928.26
2017-08-30T02:35:35.589Z,928.29
2017-08-30T02:35:54.877Z,928.25
2017-08-30T02:36:13.110Z,928.27
2017-08-30T02:36:32.385Z,928.27
2017-08-30T02:36:51.662Z,928.29
2017-08-30T02:37:10.939Z,928.28
2017-08-30T02:37:29.200Z,928.27
2017-08-30T02:37:48.482Z,928.27
2017-08-30T02:38:07.728Z,928.26
2017-08-30T02:38:26.987Z,928.27
2017-08-30T02:38:45.780Z,928.27
2017-08-30T02:39:05.055Z,928.26
2017-08-30T02:39:23.822Z,928.27
2017-08-30T02:39:42.568Z,928.29
2017-08-30T02:40:01.853Z,928.26
2017-08-30T02:40:20.618Z,928.23
2017-08-30T02:40:39.902Z,928.29
2017-08-30T02:40:58.653Z,928.22
2017-08-30T02:41:17.447Z,928.22
2017-08-30T02:41:35.693Z,928.26
2017-08-30T02:41:54.476Z,928.26
2017-08-30T02:42:13.211Z,928.25
2017-08-30T02:42:31.962Z,928.26
2017-08-30T02:42:51.340Z,928.25
2017-08-30T02:43:10.639Z,928.25
2017-08-30T02:43:29.939Z,928.25
2017-08-30T02:43:49.445Z,928.25
2017-08-30T02:44:08.694Z,928.24
2017-08-30T02:44:28.005Z,928.23
2017-08-30T02:44:46.785Z,928.22
2017-08-30T02:45:05.533Z,928.22
2017-08-30T02:45:24.836Z,928.23
2017-08-30T02:45:43.598Z,928.23
2017-08-30T02:46:02.876Z,928.23
2017-08-30T02:46:21.690Z,928.24
2017-08-30T02:46:40.454Z,928.21
2017-08-30T02:46:59.740Z,928.21
2017-08-30T02:47:18.489Z,928.2
2017-08-30T02:47:37.797Z,928.22
2017-08-30T02:47:57.084Z,928.21
2017-08-30T02:48:15.847Z,928.25
2017-08-30T02:48:35.137Z,928.24
2017-08-30T02:48:54.436Z,928.19
2017-08-30T02:49:13.706Z,928.16
2017-08-30T02:49:32.468Z,928.2
2017-08-30T02:49:51.745Z,928.18
2017-08-30T02:50:11.042Z,928.16
2017-08-30T02:50:29.805Z,928.16
2017-08-30T02:50:49.096Z,928.18
2017-08-30T02:51:08.347Z,928.22
2017-08-30T02:51:27.636Z,928.22
2017-08-30T02:51:46.429Z,928.22
2017-08-30T02:52:05.176Z,928.2
2017-08-30T02:52:23.939Z,928.16
2017-08-30T02:52:43.248Z,928.19
2017-08-30T02:53:02.005Z,928.18
2017-08-30T02:53:20.763Z,928.21
2017-08-30T02:53:40.019Z,928.18
2017-08-30T02:53:58.789Z,928.18
2017-08-30T02:54:18.040Z,928.2
2017-08-30T02:54:36.805Z,928.17
2017-08-30T02:54:56.076Z,928.18
2017-08-30T02:55:14.845Z,928.17
2017-08-30T02:55:34.121Z,928.15
2017-08-30T02:55:53.395Z,928.15
2017-08-30T02:56:12.662Z,928.14
2017-08-30T02:56:30.892Z,928.15
2017-08-30T02:56:49.655Z,928.12
2017-08-30T02:57:08.378Z,928.15
2017-08-30T02:57:27.652Z,928.13
2017-08-30T02:57:46.929Z,928.12
2017-08-30T02:58:06.168Z,928.16
2017-08-30T02:58:24.928Z,928.1
2017-08-30T02:58:44.233Z,928.1
2017-08-30T02:59:03.487Z,928.09
2017-08-30T02:59:22.243Z,928.14
2017-08-30T02:59:39.935Z,928.07
2017-08-30T02:59:58.717Z,928.08
2017-08-30T03:00:17.995Z,928.13
2017-08-30T03:00:36.270Z,928.11
2017-08-30T03:00:55.565Z,928.11
2017-08-30T03:01:13.825Z,928.1
2017-08-30T03:01:32.575Z,928.11
2017-08-30T03:01:51.344Z,928.09
2017-08-30T03:02:10.630Z,928.07
2017-08-30T03:02:29.916Z,928.1
2017-08-30T03:02:48.673Z,928.05
2017-08-30T03:03:07.439Z,928.08
2017-08-30T03:03:25.675Z,928.12
2017-08-30T03:03:44.965Z,928.06
2017-08-30T03:04:04.227Z,928.07
2017-08-30T03:04:22.995Z,928.06
2017-08-30T03:04:41.739Z,928.08
2017-08-30T03:05:01.014Z,928.06
2017-08-30T03:05:20.307Z,928.07
2017-08-30T03:05:39.065Z,928.08
2017-08-30T03:05:57.802Z,928.11
2017-08-30T03:06:16.569Z,928.09
2017-08-30T03:06:35.362Z,928.09
2017-08-30T03:06:53.604Z,928.06
2017-08-30T03:07:12.873Z,928.06
2017-08-30T03:07:31.616Z,928.08
2017-08-30T03:07:50.888Z,928.08
2017-08-30T03:08:09.642Z,928.06
2017-08-30T03:08:28.985Z,928.07
2017-08-30T03:08:47.737Z,928.03
2017-08-30T03:09:07.023Z,928.1
2017-08-30T03:09:26.289Z,928.06
2017-08-30T03:09:45.553Z,928.04
2017-08-30T03:10:04.308Z,928.07
2017-08-30T03:10:22.547Z,928.05
2017-08-30T03:10:41.836Z,928.02
2017-08-30T03:11:01.104Z,928.06
2017-08-30T03:11:19.831Z,928.02
2017-08-30T03:11:38.573Z,928.06
2017-08-30T03:11:57.867Z,928.02
2017-08-30T03:12:17.158Z,928.02
2017-08-30T03:12:35.897Z,928.07
2017-08-30T03:12:55.187Z,928.06
2017-08-30T03:13:13.917Z,928.07
2017-08-30T03:13:32.659Z,928.04
2017-08-30T03:13:51.943Z,928.01
2017-08-30T03:14:11.204Z,928.05
2017-08-30T03:14:29.953Z,928.04
2017-08-30T03:14:48.699Z,928.05
2017-08-30T03:15:07.459Z,928.02
2017-08-30T03:15:25.707Z,928.03
2017-08-30T03:15:44.483Z,928.02
2017-08-30T03:16:03.213Z,928.01
2017-08-30T03:16:21.436Z,928.03
2017-08-30T03:16:40.681Z,927.99
2017-08-30T03:16:59.943Z,928.03
2017-08-30T03:17:18.185Z,927.96
2017-08-30T03:17:36.447Z,928.01
2017-08-30T03:17:54.671Z,927.96
2017-08-30T03:18:13.434Z,927.98
2017-08-30T03:18:32.177Z,928.01
2017-08-30T03:18:50.975Z,927.97
2017-08-30T03:19:10.275Z,927.96
2017-08-30T03:19:29.541Z,927.98
2017-08-30T03:19:48.799Z,927.96
2017-08-30T03:20:08.067Z,927.94
2017-08-30T03:20:27.337Z,927.94
2017-08-30T03:20:46.623Z,927.97
2017-08-30T03:21:05.904Z,927.95
2017-08-30T03:21:25.183Z,927.95
2017-08-30T03:21:44.453Z,927.96
2017-08-30T03:22:03.733Z,927.92
2017-08-30T03:22:23.013Z,927.9
2017-08-30T03:22:41.767Z,927.9
2017-08-30T03:23:01.051Z,927.91
2017-08-30T03:23:19.801Z,927.9
2017-08-30T03:23:39.084Z,927.92
2017-08-30T03:23:58.362Z,927.88
2017-08-30T03:24:17.088Z,927.85
2017-08-30T03:24:35.849Z,927.89
2017-08-30T03:24:55.106Z,927.9
2017-08-30T03:25:13.861Z,927.84
2017-08-30T03:25:32.102Z,927.84
2017-08-30T03:25:51.373Z,927.88
2017-08-30T03:26:10.680Z,927.87
2017-08-30T03:26:29.926Z,927.83
2017-08-30T03:26:49.189Z,927.87
2017-08-30T03:27:06.874Z,927.89
2017-08-30T03:27:25.643Z,927.88
2017-08-30T03:27:44.910Z,927.88
2017-08-30T03:28:03.673Z,927.91
2017-08-30T03:28:21.899Z,927.89
2017-08-30T03:28:40.708Z,927.84
2017-08-30T03:28:59.993Z,927.82
2017-08-30T03:29:19.257Z,927.86
2017-08-30T03:29:38.526Z,927.84
2017-08-30T03:29:57.788Z,927.83
2017-08-30T03:30:16.568Z,927.83
2017-08-30T03:30:35.348Z,927.84
2017-08-30T03:30:54.634Z,927.89
2017-08-30T03:31:13.952Z,927.87
2017-08-30T03:31:32.722Z,927.82
2017-08-30T03:31:51.996Z,927.84
2017-08-30T03:32:11.285Z,927.87
2017-08-30T03:32:30.574Z,927.87
2017-08-30T03:32:49.842Z,927.87
2017-08-30T03:33:08.594Z,927.89
2017-08-30T03:33:26.825Z,927.86
2017-08-30T03:33:46.112Z,927.88
2017-08-30T03:34:05.388Z,927.88
2017-08-30T03:34:24.129Z,927.87
2017-08-30T03:34:43.385Z,927.85
2017-08-30T03:35:02.649Z,927.86
2017-08-30T03:35:21.390Z,927.82
2017-08-30T03:35:40.684Z,927.86
2017-08-30T03:35:58.914Z,927.82
2017-08-30T03:36:17.690Z,927.83
2017-08-30T03:36:35.933Z,927.85
2017-08-30T03:36:55.218Z,927.84
2017-08-30T03:37:13.958Z,927.81
2017-08-30T03:37:32.721Z,927.83
2017-08-30T03:37:51.997Z,927.83
2017-08-30T03:38:11.273Z,927.8
2017-08-30T03:38:30.528Z,927.84
2017-08-30T03:38:49.812Z,927.79
2017-08-30T03:39:09.112Z,927.83
2017-08-30T03:39:28.409Z,927.84
2017-08-30T03:39:46.123Z,927.81
2017-08-30T03:40:04.861Z,927.8
2017-08-30T03:40:24.144Z,927.82
2017-08-30T03:40:42.917Z,927.79
2017-08-30T03:41:01.656Z,927.82
2017-08-30T03:41:19.910Z,927.83
2017-08-30T03:41:39.200Z,927.83
2017-08-30T03:41:57.924Z,927.83
2017-08-30T03:42:16.184Z,927.83
2017-08-30T03:42:35.473Z,927.78
2017-08-30T03:42:54.755Z,927.82
2017-08-30T03:43:14.012Z,927.84
2017-08-30T03:43:32.770Z,927.79
2017-08-30T03:43:52.038Z,927.81
2017-08-30T03:44:11.310Z,927.83
2017-08-30T03:44:30.614Z,927.82
2017-08-30T03:44:48.326Z,927.81
2017-08-30T03:45:07.057Z,927.86
2017-08-30T03:45:26.362Z,927.83
2017-08-30T03:45:45.641Z,927.83
2017-08-30T03:46:04.903Z,927.81
2017-08-30T03:46:23.655Z,927.8
2017-08-30T03:46:42.937Z,927.8
2017-08-30T03:47:01.705Z,927.81
2017-08-30T03:47:20.996Z,927.8
2017-08-30T03:47:40.264Z,927.8
2017-08-30T03:47:59.010Z,927.83
2017-08-30T03:48:18.300Z,927.8
2017-08-30T03:48:37.563Z,927.77
2017-08-30T03:48:56.808Z,927.75
2017-08-30T03:49:15.556Z,927.78
2017-08-30T03:49:33.772Z,927.81
2017-08-30T03:49:53.041Z,927.8
2017-08-30T03:50:12.347Z,927.77
2017-08-30T03:50:31.120Z,927.8
2017-08-30T03:50:50.386Z,927.81
2017-08-30T03:51:08.612Z,927.78
2017-08-30T03:51:26.831Z,927.8
2017-08-30T03:51:46.144Z,927.82
2017-08-30T03:52:04.884Z,927.79
2017-08-30T03:52:24.148Z,927.79
2017-08-30T03:52:42.904Z,927.8
2017-08-30T03:53:02.202Z,927.79
2017-08-30T03:53:21.453Z,927.79
2017-08-30T03:53:39.709Z,927.78
2017-08-30T03:53:58.989Z,927.79
2017-08-30T03:54:17.763Z,927.76
2017-08-30T03:54:36.507Z,927.78
2017-08-30T03:54:55.762Z,927.76
2017-08-30T03:55:15.040Z,927.76
2017-08-30T03:55:34.324Z,927.76
2017-08-30T03:55:53.070Z,927.73
2017-08-30T03:56:12.330Z,927.76
2017-08-30T03:56:31.627Z,927.73
2017-08-30T03:56:50.905Z,927.75
2017-08-30T03:57:10.196Z,927.77